sensor_id;sensor_type;location;lat;lon;timestamp;pressure;altitude;pressure_sealevel;temperature;humidity
12471;BME280;36499;46.484;13.832;2022-07-23T00:01:39;93382.50;;;20.91;63.97
12471;BME280;36499;46.484;13.832;2022-07-23T00:04:08;93388.88;;;20.75;64.32
12471;BME280;36499;46.484;13.832;2022-07-23T00:06:35;93388.06;;;20.85;64.04
12471;BME280;36499;46.484;13.832;2022-07-23T00:09:02;93389.63;;;20.86;64.04
12471;BME280;36499;46.484;13.832;2022-07-23T00:11:29;93389.63;;;20.86;63.88
12471;BME280;36499;46.484;13.832;2022-07-23T00:13:57;93395.47;;;20.88;63.90
12471;BME280;36499;46.484;13.832;2022-07-23T00:16:24;93384.84;;;20.93;63.61
12471;BME280;36499;46.484;13.832;2022-07-23T00:18:51;93387.25;;;20.94;63.54
12471;BME280;36499;46.484;13.832;2022-07-23T00:21:19;93381.16;;;20.89;63.74
12471;BME280;36499;46.484;13.832;2022-07-23T00:23:47;93381.44;;;20.82;64.00
12471;BME280;36499;46.484;13.832;2022-07-23T00:26:14;93375.59;;;20.85;63.62
12471;BME280;36499;46.484;13.832;2022-07-23T00:28:41;93377.97;;;20.87;62.91
12471;BME280;36499;46.484;13.832;2022-07-23T00:31:08;93373.50;;;20.77;63.82
12471;BME280;36499;46.484;13.832;2022-07-23T00:33:35;93376.72;;;20.54;64.80
12471;BME280;36499;46.484;13.832;2022-07-23T00:36:03;93376.44;;;20.40;65.46
12471;BME280;36499;46.484;13.832;2022-07-23T00:38:32;93365.59;;;20.37;65.51
12471;BME280;36499;46.484;13.832;2022-07-23T00:40:59;93364.00;;;20.31;65.91
12471;BME280;36499;46.484;13.832;2022-07-23T00:43:26;93376.13;;;20.22;66.15
12471;BME280;36499;46.484;13.832;2022-07-23T00:45:54;93373.00;;;20.35;65.69
12471;BME280;36499;46.484;13.832;2022-07-23T00:48:21;93367.69;;;20.45;65.47
12471;BME280;36499;46.484;13.832;2022-07-23T00:50:48;93356.28;;;20.54;65.05
12471;BME280;36499;46.484;13.832;2022-07-23T00:53:16;93352.03;;;20.58;64.92
12471;BME280;36499;46.484;13.832;2022-07-23T00:55:44;93357.59;;;20.62;64.74
12471;BME280;36499;46.484;13.832;2022-07-23T00:58:12;93341.16;;;20.70;64.03
12471;BME280;36499;46.484;13.832;2022-07-23T01:00:39;93340.88;;;20.82;63.46
12471;BME280;36499;46.484;13.832;2022-07-23T01:03:07;93336.41;;;20.72;63.73
12471;BME280;36499;46.484;13.832;2022-07-23T01:05:34;93333.50;;;20.64;64.10
12471;BME280;36499;46.484;13.832;2022-07-23T01:08:01;93333.25;;;20.60;64.21
12471;BME280;36499;46.484;13.832;2022-07-23T01:10:29;93329.28;;;20.57;64.64
12471;BME280;36499;46.484;13.832;2022-07-23T01:13:03;93327.94;;;20.55;64.47
12471;BME280;36499;46.484;13.832;2022-07-23T01:15:31;93321.34;;;20.52;64.88
12471;BME280;36499;46.484;13.832;2022-07-23T01:17:59;93329.28;;;20.52;64.78
12471;BME280;36499;46.484;13.832;2022-07-23T01:20:26;93325.03;;;20.56;64.56
12471;BME280;36499;46.484;13.832;2022-07-23T01:22:55;93323.69;;;20.59;64.56
12471;BME280;36499;46.484;13.832;2022-07-23T01:25:22;93328.47;;;20.67;63.92
12471;BME280;36499;46.484;13.832;2022-07-23T01:27:51;93329.81;;;20.65;63.99
12471;BME280;36499;46.484;13.832;2022-07-23T01:30:19;93330.84;;;20.58;64.42
12471;BME280;36499;46.484;13.832;2022-07-23T01:32:46;93329.81;;;20.49;64.74
12471;BME280;36499;46.484;13.832;2022-07-23T01:35:13;93332.22;;;20.46;65.11
12471;BME280;36499;46.484;13.832;2022-07-23T01:37:40;93326.38;;;20.49;64.93
12471;BME280;36499;46.484;13.832;2022-07-23T01:40:10;93330.06;;;20.48;65.04
12471;BME280;36499;46.484;13.832;2022-07-23T01:42:37;93322.41;;;20.41;65.01
12471;BME280;36499;46.484;13.832;2022-07-23T01:45:05;93326.66;;;20.32;65.47
12471;BME280;36499;46.484;13.832;2022-07-23T01:47:33;93321.59;;;20.21;66.05
12471;BME280;36499;46.484;13.832;2022-07-23T01:50:00;93322.13;;;20.07;66.90
12471;BME280;36499;46.484;13.832;2022-07-23T01:52:27;93323.19;;;20.17;66.39
12471;BME280;36499;46.484;13.832;2022-07-23T01:54:54;93326.94;;;20.31;65.93
12471;BME280;36499;46.484;13.832;2022-07-23T01:57:23;93321.59;;;20.36;65.60
12471;BME280;36499;46.484;13.832;2022-07-23T01:59:50;93326.66;;;20.42;65.48
12471;BME280;36499;46.484;13.832;2022-07-23T02:02:17;93327.44;;;20.38;65.30
12471;BME280;36499;46.484;13.832;2022-07-23T02:04:44;93321.34;;;20.22;66.10
12471;BME280;36499;46.484;13.832;2022-07-23T02:07:11;93333.78;;;20.22;66.15
12471;BME280;36499;46.484;13.832;2022-07-23T02:09:38;93324.53;;;20.19;66.38
12471;BME280;36499;46.484;13.832;2022-07-23T02:12:06;93333.25;;;20.09;66.75
12471;BME280;36499;46.484;13.832;2022-07-23T02:14:34;93338.53;;;20.15;66.64
12471;BME280;36499;46.484;13.832;2022-07-23T02:17:01;93334.84;;;20.16;66.48
12471;BME280;36499;46.484;13.832;2022-07-23T02:19:28;93336.97;;;20.19;66.72
12471;BME280;36499;46.484;13.832;2022-07-23T02:21:56;93335.38;;;20.13;66.61
12471;BME280;36499;46.484;13.832;2022-07-23T02:24:23;93328.47;;;20.01;66.50
12471;BME280;36499;46.484;13.832;2022-07-23T02:26:50;93329.28;;;19.97;66.94
12471;BME280;36499;46.484;13.832;2022-07-23T02:29:17;93331.41;;;20.05;66.62
12471;BME280;36499;46.484;13.832;2022-07-23T02:31:46;93338.56;;;20.04;66.77
12471;BME280;36499;46.484;13.832;2022-07-23T02:34:13;93326.88;;;20.05;66.80
12471;BME280;36499;46.484;13.832;2022-07-23T02:36:40;93323.97;;;20.02;66.94
12471;BME280;36499;46.484;13.832;2022-07-23T02:39:07;93325.06;;;20.01;67.12
12471;BME280;36499;46.484;13.832;2022-07-23T02:41:34;93327.16;;;20.14;66.71
12471;BME280;36499;46.484;13.832;2022-07-23T02:44:02;93321.88;;;20.19;66.37
12471;BME280;36499;46.484;13.832;2022-07-23T02:46:29;93329.56;;;20.31;65.84
12471;BME280;36499;46.484;13.832;2022-07-23T02:48:57;93328.19;;;19.98;67.15
12471;BME280;36499;46.484;13.832;2022-07-23T02:51:24;93331.41;;;20.05;66.87
12471;BME280;36499;46.484;13.832;2022-07-23T02:53:51;93325.28;;;20.09;66.74
12471;BME280;36499;46.484;13.832;2022-07-23T02:56:19;93332.97;;;20.06;67.11
12471;BME280;36499;46.484;13.832;2022-07-23T02:58:46;93336.41;;;19.86;67.43
12471;BME280;36499;46.484;13.832;2022-07-23T03:01:13;93327.66;;;19.81;67.88
12471;BME280;36499;46.484;13.832;2022-07-23T03:03:40;93339.06;;;19.81;67.85
12471;BME280;36499;46.484;13.832;2022-07-23T03:06:08;93331.38;;;19.80;67.86
12471;BME280;36499;46.484;13.832;2022-07-23T03:08:39;93335.84;;;19.69;67.58
12471;BME280;36499;46.484;13.832;2022-07-23T03:11:10;93338.97;;;19.56;67.90
12471;BME280;36499;46.484;13.832;2022-07-23T03:13:38;93340.00;;;19.45;68.50
12471;BME280;36499;46.484;13.832;2022-07-23T03:16:06;93344.81;;;19.53;68.22
12471;BME280;36499;46.484;13.832;2022-07-23T03:18:34;93350.09;;;19.53;68.42
12471;BME280;36499;46.484;13.832;2022-07-23T03:21:01;93350.09;;;19.53;68.39
12471;BME280;36499;46.484;13.832;2022-07-23T03:23:30;93349.03;;;19.44;69.14
12471;BME280;36499;46.484;13.832;2022-07-23T03:25:57;93356.16;;;19.48;68.90
12471;BME280;36499;46.484;13.832;2022-07-23T03:28:24;93345.88;;;19.57;68.62
12471;BME280;36499;46.484;13.832;2022-07-23T03:30:51;93351.19;;;19.62;68.61
12471;BME280;36499;46.484;13.832;2022-07-23T03:33:20;93353.09;;;19.82;67.74
12471;BME280;36499;46.484;13.832;2022-07-23T03:35:48;93352.50;;;19.75;68.09
12471;BME280;36499;46.484;13.832;2022-07-23T03:38:16;93351.44;;;19.55;68.66
12471;BME280;36499;46.484;13.832;2022-07-23T03:40:44;93351.94;;;19.52;68.72
12471;BME280;36499;46.484;13.832;2022-07-23T03:43:11;93357.22;;;19.42;69.29
12471;BME280;36499;46.484;13.832;2022-07-23T03:45:39;93357.44;;;19.36;69.60
12471;BME280;36499;46.484;13.832;2022-07-23T03:48:06;93352.72;;;19.43;69.49
12471;BME280;36499;46.484;13.832;2022-07-23T03:50:33;93353.25;;;19.45;69.24
12471;BME280;36499;46.484;13.832;2022-07-23T03:53:00;93353.28;;;19.55;68.93
12471;BME280;36499;46.484;13.832;2022-07-23T03:55:28;93357.53;;;19.61;69.06
12471;BME280;36499;46.484;13.832;2022-07-23T03:57:57;93353.81;;;19.57;69.04
12471;BME280;36499;46.484;13.832;2022-07-23T04:00:24;93353.06;;;19.67;68.74
12471;BME280;36499;46.484;13.832;2022-07-23T04:02:51;93342.19;;;19.68;68.49
12471;BME280;36499;46.484;13.832;2022-07-23T04:05:18;93337.44;;;19.65;68.63
12471;BME280;36499;46.484;13.832;2022-07-23T04:07:45;93342.44;;;19.61;68.99
12471;BME280;36499;46.484;13.832;2022-07-23T04:10:12;93336.91;;;19.63;68.99
12471;BME280;36499;46.484;13.832;2022-07-23T04:12:40;93334.25;;;19.63;69.00
12471;BME280;36499;46.484;13.832;2022-07-23T04:15:09;93338.47;;;19.64;68.73
12471;BME280;36499;46.484;13.832;2022-07-23T04:17:36;93336.38;;;19.61;68.92
12471;BME280;36499;46.484;13.832;2022-07-23T04:20:05;93342.19;;;19.68;68.54
12471;BME280;36499;46.484;13.832;2022-07-23T04:22:32;93339.03;;;19.66;68.82
12471;BME280;36499;46.484;13.832;2022-07-23T04:24:59;93348.56;;;19.72;68.72
12471;BME280;36499;46.484;13.832;2022-07-23T04:27:26;93349.88;;;19.80;68.39
12471;BME280;36499;46.484;13.832;2022-07-23T04:29:54;93347.78;;;19.92;68.00
12471;BME280;36499;46.484;13.832;2022-07-23T04:32:22;93343.28;;;19.97;67.98
12471;BME280;36499;46.484;13.832;2022-07-23T04:34:50;93337.47;;;19.95;68.30
12471;BME280;36499;46.484;13.832;2022-07-23T04:37:17;93343.84;;;19.89;68.40
12471;BME280;36499;46.484;13.832;2022-07-23T04:39:44;93341.41;;;19.83;68.42
12471;BME280;36499;46.484;13.832;2022-07-23T04:42:11;93336.13;;;19.88;68.44
12471;BME280;36499;46.484;13.832;2022-07-23T04:44:38;93335.88;;;19.89;68.23
12471;BME280;36499;46.484;13.832;2022-07-23T04:47:05;93328.72;;;19.90;68.22
12471;BME280;36499;46.484;13.832;2022-07-23T04:49:34;93319.22;;;19.89;68.22
12471;BME280;36499;46.484;13.832;2022-07-23T04:52:01;93323.44;;;20.00;67.85
12471;BME280;36499;46.484;13.832;2022-07-23T04:54:29;93314.47;;;20.01;67.71
12471;BME280;36499;46.484;13.832;2022-07-23T04:56:56;93316.56;;;20.04;67.89
12471;BME280;36499;46.484;13.832;2022-07-23T04:59:23;93312.06;;;19.99;67.96
12471;BME280;36499;46.484;13.832;2022-07-23T05:01:50;93309.97;;;20.11;68.02
12471;BME280;36499;46.484;13.832;2022-07-23T05:04:17;93315.53;;;20.20;67.89
12471;BME280;36499;46.484;13.832;2022-07-23T05:06:45;93308.91;;;20.23;68.11
12471;BME280;36499;46.484;13.832;2022-07-23T05:09:13;93301.75;;;20.33;68.05
12471;BME280;36499;46.484;13.832;2022-07-23T05:11:40;93303.88;;;20.41;67.67
12471;BME280;36499;46.484;13.832;2022-07-23T05:14:07;93298.03;;;20.49;67.58
12471;BME280;36499;46.484;13.832;2022-07-23T05:16:34;93299.59;;;20.66;67.26
12471;BME280;36499;46.484;13.832;2022-07-23T05:19:01;93296.91;;;20.71;67.21
12471;BME280;36499;46.484;13.832;2022-07-23T05:21:28;93288.91;;;20.86;66.68
12471;BME280;36499;46.484;13.832;2022-07-23T05:23:57;93294.38;;;21.20;65.56
12471;BME280;36499;46.484;13.832;2022-07-23T05:26:24;93289.56;;;21.32;64.89
12471;BME280;36499;46.484;13.832;2022-07-23T05:28:51;93289.00;;;21.35;65.01
12471;BME280;36499;46.484;13.832;2022-07-23T05:31:19;93288.63;;;21.57;64.47
12471;BME280;36499;46.484;13.832;2022-07-23T05:33:46;93281.97;;;21.64;64.02
12471;BME280;36499;46.484;13.832;2022-07-23T05:36:13;93283.66;;;21.84;63.63
12471;BME280;36499;46.484;13.832;2022-07-23T05:38:40;93278.56;;;21.97;63.78
12471;BME280;36499;46.484;13.832;2022-07-23T05:41:09;93275.00;;;22.07;63.49
12471;BME280;36499;46.484;13.832;2022-07-23T05:43:36;93274.59;;;22.29;62.90
12471;BME280;36499;46.484;13.832;2022-07-23T05:46:03;93274.91;;;22.51;62.05
12471;BME280;36499;46.484;13.832;2022-07-23T05:48:30;93273.94;;;22.66;62.32
12471;BME280;36499;46.484;13.832;2022-07-23T05:52:16;93269.97;;;22.92;61.55
12471;BME280;36499;46.484;13.832;2022-07-23T05:54:45;93274.66;;;23.00;60.74
12471;BME280;36499;46.484;13.832;2022-07-23T05:57:14;93274.22;;;23.17;61.12
12471;BME280;36499;46.484;13.832;2022-07-23T05:59:41;93274.66;;;23.24;60.50
12471;BME280;36499;46.484;13.832;2022-07-23T06:02:08;93272.25;;;23.22;59.86
12471;BME280;36499;46.484;13.832;2022-07-23T06:04:35;93274.38;;;23.44;60.17
12471;BME280;36499;46.484;13.832;2022-07-23T06:07:02;93277.16;;;23.58;60.61
12471;BME280;36499;46.484;13.832;2022-07-23T06:09:29;93283.84;;;23.74;60.66
12471;BME280;36499;46.484;13.832;2022-07-23T06:11:57;93287.44;;;23.83;60.92
12471;BME280;36499;46.484;13.832;2022-07-23T06:14:25;93285.91;;;23.96;60.22
12471;BME280;36499;46.484;13.832;2022-07-23T06:16:52;93288.31;;;24.16;59.59
12471;BME280;36499;46.484;13.832;2022-07-23T06:19:19;93287.78;;;24.14;59.52
12471;BME280;36499;46.484;13.832;2022-07-23T06:21:47;93293.53;;;24.21;59.39
12471;BME280;36499;46.484;13.832;2022-07-23T06:24:14;93287.28;;;24.44;59.14
12471;BME280;36499;46.484;13.832;2022-07-23T06:26:41;93284.88;;;24.61;59.20
12471;BME280;36499;46.484;13.832;2022-07-23T06:29:08;93283.75;;;24.62;57.65
12471;BME280;36499;46.484;13.832;2022-07-23T06:31:37;93286.94;;;24.78;56.45
12471;BME280;36499;46.484;13.832;2022-07-23T06:34:04;93280.16;;;24.86;55.53
12471;BME280;36499;46.484;13.832;2022-07-23T06:36:31;93281.06;;;24.95;55.70
12471;BME280;36499;46.484;13.832;2022-07-23T06:38:58;93283.44;;;25.10;56.29
12471;BME280;36499;46.484;13.832;2022-07-23T06:41:25;93282.06;;;25.26;54.87
12471;BME280;36499;46.484;13.832;2022-07-23T06:43:52;93293.50;;;25.40;54.29
12471;BME280;36499;46.484;13.832;2022-07-23T06:46:19;93286.19;;;25.59;55.10
12471;BME280;36499;46.484;13.832;2022-07-23T06:48:48;93291.91;;;25.66;54.06
12471;BME280;36499;46.484;13.832;2022-07-23T06:51:15;93281.97;;;25.81;52.20
12471;BME280;36499;46.484;13.832;2022-07-23T06:53:43;93279.03;;;26.04;52.69
12471;BME280;36499;46.484;13.832;2022-07-23T06:56:10;93285.53;;;26.12;52.21
12471;BME280;36499;46.484;13.832;2022-07-23T06:58:37;93293.81;;;26.46;53.46
12471;BME280;36499;46.484;13.832;2022-07-23T07:01:04;93287.53;;;26.73;53.45
12471;BME280;36499;46.484;13.832;2022-07-23T07:03:31;93285.16;;;26.71;53.17
12471;BME280;36499;46.484;13.832;2022-07-23T07:06:00;93286.00;;;26.81;53.82
12471;BME280;36499;46.484;13.832;2022-07-23T07:08:28;93294.47;;;26.74;53.72
12471;BME280;36499;46.484;13.832;2022-07-23T07:10:55;93295.19;;;26.88;53.93
12471;BME280;36499;46.484;13.832;2022-07-23T07:13:22;93295.59;;;26.82;51.57
12471;BME280;36499;46.484;13.832;2022-07-23T07:15:49;93298.50;;;26.94;50.33
12471;BME280;36499;46.484;13.832;2022-07-23T07:18:16;93303.59;;;27.04;49.27
12471;BME280;36499;46.484;13.832;2022-07-23T07:20:43;93297.28;;;27.39;48.40
12471;BME280;36499;46.484;13.832;2022-07-23T07:23:12;93292.63;;;27.62;47.34
12471;BME280;36499;46.484;13.832;2022-07-23T07:25:40;93301.28;;;27.67;44.66
12471;BME280;36499;46.484;13.832;2022-07-23T07:28:07;93304.16;;;27.97;44.79
12471;BME280;36499;46.484;13.832;2022-07-23T07:30:34;93316.19;;;28.25;42.84
12471;BME280;36499;46.484;13.832;2022-07-23T07:33:01;93312.72;;;28.42;42.03
12471;BME280;36499;46.484;13.832;2022-07-23T07:35:28;93325.94;;;28.73;41.02
12471;BME280;36499;46.484;13.832;2022-07-23T07:37:57;93334.94;;;28.85;40.15
12471;BME280;36499;46.484;13.832;2022-07-23T07:40:25;93337.59;;;28.94;39.35
12471;BME280;36499;46.484;13.832;2022-07-23T07:42:53;93337.94;;;28.84;39.00
12471;BME280;36499;46.484;13.832;2022-07-23T07:45:24;93344.50;;;29.12;39.50
12471;BME280;36499;46.484;13.832;2022-07-23T07:47:52;93354.16;;;28.96;39.34
12471;BME280;36499;46.484;13.832;2022-07-23T07:50:20;93357.38;;;28.64;40.32
12471;BME280;36499;46.484;13.832;2022-07-23T07:52:47;93364.97;;;28.70;40.64
12471;BME280;36499;46.484;13.832;2022-07-23T07:55:14;93374.56;;;28.63;40.85
12471;BME280;36499;46.484;13.832;2022-07-23T07:57:49;93386.25;;;28.58;40.76
12471;BME280;36499;46.484;13.832;2022-07-23T08:00:16;93391.13;;;28.39;40.90
12471;BME280;36499;46.484;13.832;2022-07-23T08:02:46;93395.69;;;28.38;40.63
12471;BME280;36499;46.484;13.832;2022-07-23T08:05:14;93401.97;;;28.08;39.64
12471;BME280;36499;46.484;13.832;2022-07-23T08:07:42;93401.03;;;28.04;40.49
12471;BME280;36499;46.484;13.832;2022-07-23T08:10:09;93400.06;;;28.00;40.65
12471;BME280;36499;46.484;13.832;2022-07-23T08:12:44;93390.75;;;28.06;41.41
12471;BME280;36499;46.484;13.832;2022-07-23T08:15:14;93376.63;;;28.14;42.06
12471;BME280;36499;46.484;13.832;2022-07-23T08:17:43;93370.91;;;28.07;41.52
12471;BME280;36499;46.484;13.832;2022-07-23T08:20:12;93366.16;;;27.95;41.58
12471;BME280;36499;46.484;13.832;2022-07-23T08:22:48;93365.03;;;28.05;42.39
12471;BME280;36499;46.484;13.832;2022-07-23T08:25:20;93364.41;;;27.91;41.84
12471;BME280;36499;46.484;13.832;2022-07-23T08:27:50;93358.56;;;27.89;41.61
12471;BME280;36499;46.484;13.832;2022-07-23T08:30:18;93350.09;;;28.04;40.84
12471;BME280;36499;46.484;13.832;2022-07-23T08:32:51;93347.88;;;28.23;43.35
12471;BME280;36499;46.484;13.832;2022-07-23T08:35:24;93352.00;;;28.12;43.51
12471;BME280;36499;46.484;13.832;2022-07-23T08:37:51;93347.13;;;28.14;44.89
12471;BME280;36499;46.484;13.832;2022-07-23T08:40:19;93342.38;;;28.11;44.97
12471;BME280;36499;46.484;13.832;2022-07-23T08:42:50;93344.44;;;28.14;45.75
12471;BME280;36499;46.484;13.832;2022-07-23T08:45:20;93341.91;;;28.26;45.02
12471;BME280;36499;46.484;13.832;2022-07-23T08:47:54;93343.78;;;28.00;44.45
12471;BME280;36499;46.484;13.832;2022-07-23T08:50:23;93337.56;;;27.82;43.65
12471;BME280;36499;46.484;13.832;2022-07-23T08:52:52;93337.97;;;28.15;44.24
12471;BME280;36499;46.484;13.832;2022-07-23T08:55:21;93341.41;;;28.16;43.67
12471;BME280;36499;46.484;13.832;2022-07-23T08:57:52;93330.47;;;27.86;44.77
12471;BME280;36499;46.484;13.832;2022-07-23T09:00:21;93325.16;;;28.81;44.33
12471;BME280;36499;46.484;13.832;2022-07-23T09:02:49;93322.75;;;28.88;43.08
12471;BME280;36499;46.484;13.832;2022-07-23T09:05:17;93320.75;;;29.23;42.80
12471;BME280;36499;46.484;13.832;2022-07-23T09:08:08;93310.78;;;29.32;42.01
12471;BME280;36499;46.484;13.832;2022-07-23T09:10:44;93316.38;;;29.18;41.48
12471;BME280;36499;46.484;13.832;2022-07-23T09:13:41;93317.63;;;29.12;41.99
12471;BME280;36499;46.484;13.832;2022-07-23T09:16:13;93317.50;;;29.00;43.65
12471;BME280;36499;46.484;13.832;2022-07-23T09:18:44;93318.56;;;29.16;41.82
12471;BME280;36499;46.484;13.832;2022-07-23T09:21:21;93314.13;;;29.20;41.58
12471;BME280;36499;46.484;13.832;2022-07-23T09:23:54;93316.88;;;29.03;42.36
12471;BME280;36499;46.484;13.832;2022-07-23T09:26:27;93307.28;;;29.40;43.08
12471;BME280;36499;46.484;13.832;2022-07-23T09:29:02;93304.03;;;29.55;41.80
12471;BME280;36499;46.484;13.832;2022-07-23T09:31:42;93304.41;;;29.45;41.24
12471;BME280;36499;46.484;13.832;2022-07-23T09:34:13;93303.69;;;29.57;40.76
12471;BME280;36499;46.484;13.832;2022-07-23T09:36:42;93309.00;;;29.74;40.96
12471;BME280;36499;46.484;13.832;2022-07-23T09:39:11;93304.19;;;29.88;40.29
12471;BME280;36499;46.484;13.832;2022-07-23T09:41:42;93303.13;;;30.22;40.21
12471;BME280;36499;46.484;13.832;2022-07-23T09:44:15;93293.81;;;30.19;38.04
12471;BME280;36499;46.484;13.832;2022-07-23T09:46:44;93296.31;;;30.45;38.73
12471;BME280;36499;46.484;13.832;2022-07-23T09:49:18;93292.31;;;30.30;38.93
12471;BME280;36499;46.484;13.832;2022-07-23T09:51:51;93287.97;;;30.17;37.23
12471;BME280;36499;46.484;13.832;2022-07-23T09:54:32;93275.13;;;30.43;37.58
12471;BME280;36499;46.484;13.832;2022-07-23T09:57:07;93275.50;;;30.33;36.95
12471;BME280;36499;46.484;13.832;2022-07-23T09:59:38;93275.00;;;30.40;36.76
12471;BME280;36499;46.484;13.832;2022-07-23T10:02:08;93267.50;;;30.45;37.10
12471;BME280;36499;46.484;13.832;2022-07-23T10:04:36;93270.50;;;30.44;36.31
12471;BME280;36499;46.484;13.832;2022-07-23T10:07:06;93269.66;;;30.52;37.03
12471;BME280;36499;46.484;13.832;2022-07-23T10:09:37;93261.19;;;30.74;36.95
12471;BME280;36499;46.484;13.832;2022-07-23T10:12:10;93244.72;;;30.76;36.39
12471;BME280;36499;46.484;13.832;2022-07-23T10:14:50;93254.00;;;30.78;36.05
12471;BME280;36499;46.484;13.832;2022-07-23T10:17:18;93259.47;;;30.58;36.48
12471;BME280;36499;46.484;13.832;2022-07-23T10:19:45;93249.59;;;31.07;37.11
12471;BME280;36499;46.484;13.832;2022-07-23T10:22:19;93248.88;;;30.85;36.41
12471;BME280;36499;46.484;13.832;2022-07-23T10:25:14;93246.88;;;30.94;36.66
12471;BME280;36499;46.484;13.832;2022-07-23T10:28:22;93242.97;;;31.16;36.63
12471;BME280;36499;46.484;13.832;2022-07-23T10:31:04;93251.63;;;31.22;37.24
12471;BME280;36499;46.484;13.832;2022-07-23T10:33:48;93236.81;;;31.40;36.98
12471;BME280;36499;46.484;13.832;2022-07-23T10:36:27;93237.41;;;31.58;37.11
12471;BME280;36499;46.484;13.832;2022-07-23T10:39:04;93235.09;;;31.84;36.38
12471;BME280;36499;46.484;13.832;2022-07-23T10:41:39;93239.97;;;32.18;35.89
12471;BME280;36499;46.484;13.832;2022-07-23T10:44:09;93230.97;;;32.42;35.29
12471;BME280;36499;46.484;13.832;2022-07-23T10:46:55;93230.44;;;32.37;35.54
12471;BME280;36499;46.484;13.832;2022-07-23T10:49:37;93228.72;;;32.88;34.57
12471;BME280;36499;46.484;13.832;2022-07-23T10:52:23;93217.38;;;32.66;34.31
12471;BME280;36499;46.484;13.832;2022-07-23T10:54:53;93215.31;;;32.75;34.73
12471;BME280;36499;46.484;13.832;2022-07-23T10:57:22;93209.78;;;32.28;34.13
12471;BME280;36499;46.484;13.832;2022-07-23T11:00:12;93213.38;;;32.32;34.40
12471;BME280;36499;46.484;13.832;2022-07-23T11:02:42;93214.84;;;32.30;34.99
12471;BME280;36499;46.484;13.832;2022-07-23T11:05:13;93210.84;;;32.40;34.69
12471;BME280;36499;46.484;13.832;2022-07-23T11:08:13;93212.91;;;32.30;35.21
12471;BME280;36499;46.484;13.832;2022-07-23T11:10:45;93212.81;;;31.99;35.39
12471;BME280;36499;46.484;13.832;2022-07-23T11:13:36;93207.09;;;32.28;34.83
12471;BME280;36499;46.484;13.832;2022-07-23T11:16:23;93204.69;;;32.55;35.88
12471;BME280;36499;46.484;13.832;2022-07-23T11:19:04;93200.50;;;32.85;36.09
12471;BME280;36499;46.484;13.832;2022-07-23T11:21:52;93199.19;;;32.08;36.35
12471;BME280;36499;46.484;13.832;2022-07-23T11:24:22;93190.66;;;31.94;37.53
12471;BME280;36499;46.484;13.832;2022-07-23T11:27:02;93193.59;;;31.88;36.98
12471;BME280;36499;46.484;13.832;2022-07-23T11:29:48;93188.88;;;31.58;37.16
12471;BME280;36499;46.484;13.832;2022-07-23T11:32:24;93191.75;;;31.77;37.92
12471;BME280;36499;46.484;13.832;2022-07-23T11:34:53;93194.66;;;31.72;38.83
12471;BME280;36499;46.484;13.832;2022-07-23T11:37:36;93191.19;;;31.71;38.65
12471;BME280;36499;46.484;13.832;2022-07-23T11:40:08;93197.19;;;31.53;38.26
12471;BME280;36499;46.484;13.832;2022-07-23T11:42:38;93195.81;;;31.59;38.48
12471;BME280;36499;46.484;13.832;2022-07-23T11:45:08;93190.25;;;31.79;38.44
12471;BME280;36499;46.484;13.832;2022-07-23T11:47:35;93185.03;;;31.59;38.57
12471;BME280;36499;46.484;13.832;2022-07-23T11:50:07;93184.56;;;31.69;38.75
12471;BME280;36499;46.484;13.832;2022-07-23T11:52:34;93188.69;;;31.78;38.83
12471;BME280;36499;46.484;13.832;2022-07-23T11:55:06;93180.09;;;31.88;38.09
12471;BME280;36499;46.484;13.832;2022-07-23T11:57:37;93178.34;;;32.20;37.50
12471;BME280;36499;46.484;13.832;2022-07-23T12:00:08;93179.72;;;32.02;36.91
12471;BME280;36499;46.484;13.832;2022-07-23T12:02:36;93171.38;;;31.79;36.75
12471;BME280;36499;46.484;13.832;2022-07-23T12:05:07;93171.88;;;31.97;37.01
12471;BME280;36499;46.484;13.832;2022-07-23T12:07:37;93161.25;;;32.16;36.64
12471;BME280;36499;46.484;13.832;2022-07-23T12:10:11;93156.69;;;32.32;36.36
12471;BME280;36499;46.484;13.832;2022-07-23T12:12:42;93159.13;;;32.53;37.40
12471;BME280;36499;46.484;13.832;2022-07-23T12:15:11;93161.47;;;32.83;36.46
12471;BME280;36499;46.484;13.832;2022-07-23T12:17:42;93148.03;;;33.02;35.51
12471;BME280;36499;46.484;13.832;2022-07-23T12:20:14;93149.69;;;33.06;35.21
12471;BME280;36499;46.484;13.832;2022-07-23T12:22:45;93145.25;;;32.98;35.71
12471;BME280;36499;46.484;13.832;2022-07-23T12:25:16;93150.81;;;33.21;35.48
12471;BME280;36499;46.484;13.832;2022-07-23T12:27:44;93152.81;;;32.93;34.30
12471;BME280;36499;46.484;13.832;2022-07-23T12:30:21;93153.50;;;33.37;34.18
12471;BME280;36499;46.484;13.832;2022-07-23T12:32:51;93145.94;;;33.46;33.49
12471;BME280;36499;46.484;13.832;2022-07-23T12:35:22;93143.38;;;33.88;34.33
12471;BME280;36499;46.484;13.832;2022-07-23T12:37:51;93143.44;;;34.30;33.13
12471;BME280;36499;46.484;13.832;2022-07-23T12:40:30;93136.44;;;34.29;32.57
12471;BME280;36499;46.484;13.832;2022-07-23T12:43:01;93124.44;;;34.49;32.57
12471;BME280;36499;46.484;13.832;2022-07-23T12:45:45;93126.81;;;34.50;31.52
12471;BME280;36499;46.484;13.832;2022-07-23T12:48:26;93123.13;;;34.62;31.39
12471;BME280;36499;46.484;13.832;2022-07-23T12:50:58;93117.28;;;34.83;32.51
12471;BME280;36499;46.484;13.832;2022-07-23T12:53:29;93114.72;;;34.67;32.27
12471;BME280;36499;46.484;13.832;2022-07-23T12:56:02;93114.41;;;34.72;30.62
12471;BME280;36499;46.484;13.832;2022-07-23T12:58:43;93114.22;;;34.61;31.55
12471;BME280;36499;46.484;13.832;2022-07-23T13:01:22;93110.34;;;34.62;32.65
12471;BME280;36499;46.484;13.832;2022-07-23T13:03:58;93101.88;;;34.87;32.18
12471;BME280;36499;46.484;13.832;2022-07-23T13:06:29;93097.50;;;34.79;30.86